createdAt,value
2023-02-16T00:02:30.763Z,70.49
2023-02-16T00:05:25.277Z,70.16
2023-02-16T00:08:12.157Z,70.86
2023-02-16T00:11:17.536Z,70.29
2023-02-16T00:14:07.346Z,70.99
2023-02-16T00:16:58.847Z,70.47
2023-02-16T00:19:47.981Z,70.95
2023-02-16T00:22:34.770Z,70.44
2023-02-16T00:25:21.566Z,70.51
2023-02-16T00:28:16.404Z,70.08
2023-02-16T00:31:03.611Z,70.30
2023-02-16T00:33:50.655Z,70.72
2023-02-16T00:36:40.294Z,70.60
2023-02-16T00:39:27.788Z,70.48
2023-02-16T00:42:19.363Z,70.36
2023-02-16T00:45:13.497Z,70.52
2023-02-16T00:48:00.329Z,70.66
2023-02-16T00:50:47.473Z,70.68
2023-02-16T00:53:34.260Z,70.52
2023-02-16T00:56:21.524Z,70.83
2023-02-16T00:59:14.587Z,70.66
2023-02-16T01:02:01.408Z,70.83
2023-02-16T01:04:48.227Z,70.76
2023-02-16T01:07:53.750Z,70.57
2023-02-16T01:10:58.673Z,70.46
2023-02-16T01:13:49.983Z,70.95
2023-02-16T01:16:39.757Z,70.39
2023-02-16T01:19:26.583Z,70.55
2023-02-16T01:22:13.463Z,70.44
2023-02-16T01:25:00.443Z,70.42
2023-02-16T01:27:47.411Z,70.21
2023-02-16T01:30:34.286Z,70.56
2023-02-16T01:33:21.696Z,70.81
2023-02-16T01:36:30.169Z,71.06
2023-02-16T01:39:18.836Z,70.63
2023-02-16T01:42:15.159Z,70.94
2023-02-16T01:45:05.170Z,70.58
2023-02-16T01:47:54.398Z,70.39
2023-02-16T01:51:19.079Z,71.01
2023-02-16T01:54:11.867Z,70.56
2023-02-16T01:57:25.912Z,70.32
2023-02-16T02:00:24.363Z,70.43
2023-02-16T02:03:31.732Z,70.26
2023-02-16T02:06:27.864Z,70.58
2023-02-16T02:09:39.609Z,70.50
2023-02-16T02:12:45.140Z,70.97
2023-02-16T02:15:32.905Z,70.49
2023-02-16T02:18:19.680Z,70.72
2023-02-16T02:22:22.653Z,71.21
2023-02-16T02:25:30.195Z,70.19
2023-02-16T02:28:21.800Z,70.97
2023-02-16T02:31:28.727Z,70.58
2023-02-16T02:34:38.288Z,70.61
2023-02-16T02:37:44.528Z,70.76
2023-02-16T02:40:41.841Z,70.69
2023-02-16T02:43:58.955Z,70.90
2023-02-16T02:46:45.999Z,70.80
2023-02-16T02:49:32.804Z,70.62
2023-02-16T02:52:20.409Z,70.96
2023-02-16T02:55:25.641Z,71.15
2023-02-16T02:58:32.248Z,70.41
2023-02-16T03:01:19.669Z,70.70
2023-02-16T03:04:07.937Z,70.93
2023-02-16T03:06:56.453Z,71.02
2023-02-16T03:09:43.866Z,70.76
2023-02-16T03:12:45.892Z,70.62
2023-02-16T03:15:33.584Z,70.99
2023-02-16T03:18:38.996Z,70.42
2023-02-16T03:21:45.847Z,71.14
2023-02-16T03:24:51.725Z,70.48
2023-02-16T03:28:00.647Z,70.97
2023-02-16T03:30:47.877Z,70.80
2023-02-16T03:33:35.484Z,71.09
2023-02-16T03:36:24.254Z,70.69
2023-02-16T03:39:11.844Z,71.09
2023-02-16T03:41:58.674Z,70.63
2023-02-16T03:44:45.478Z,70.98
2023-02-16T03:47:32.238Z,70.41
2023-02-16T03:50:19.116Z,71.06
2023-02-16T03:53:09.072Z,70.85
2023-02-16T03:55:55.858Z,70.54
2023-02-16T03:58:42.657Z,70.86
2023-02-16T04:01:29.458Z,70.65
2023-02-16T04:04:16.279Z,70.62
2023-02-16T04:07:03.168Z,70.86
2023-02-16T04:09:49.981Z,70.78
2023-02-16T04:12:36.763Z,70.33
2023-02-16T04:15:26.346Z,70.83
2023-02-16T04:18:13.173Z,71.13
2023-02-16T04:21:00.156Z,70.68
2023-02-16T04:23:46.912Z,70.50
2023-02-16T04:26:33.693Z,70.69
2023-02-16T04:29:20.472Z,70.46
2023-02-16T04:32:07.417Z,70.84
2023-02-16T04:34:54.321Z,70.08
2023-02-16T04:37:41.142Z,70.54
2023-02-16T04:40:27.921Z,70.63
2023-02-16T04:43:14.726Z,70.52
2023-02-16T04:46:01.509Z,71.13
2023-02-16T04:48:48.351Z,70.52
2023-02-16T04:51:35.104Z,70.26
2023-02-16T04:54:22.160Z,70.79
2023-02-16T04:57:09.331Z,70.68
2023-02-16T04:59:56.084Z,70.54
2023-02-16T05:02:42.879Z,70.33
2023-02-16T05:05:29.738Z,70.97
2023-02-16T05:08:18.367Z,70.59
2023-02-16T05:11:26.224Z,70.75
2023-02-16T05:14:40.873Z,70.83
2023-02-16T05:17:27.762Z,70.59
2023-02-16T05:20:14.646Z,71.09
2023-02-16T05:23:01.430Z,70.44
2023-02-16T05:25:48.209Z,70.86
2023-02-16T05:28:35.000Z,70.79
2023-02-16T05:31:23.247Z,70.59
2023-02-16T05:34:10.226Z,70.57
2023-02-16T05:36:57.019Z,70.53
2023-02-16T05:39:44.993Z,70.64
2023-02-16T05:42:31.801Z,70.84
2023-02-16T05:45:18.637Z,71.24
2023-02-16T05:48:05.422Z,70.56
2023-02-16T05:50:55.214Z,70.45
2023-02-16T05:53:42.269Z,70.56
2023-02-16T05:56:29.349Z,70.40
2023-02-16T05:59:16.780Z,70.56
2023-02-16T06:02:03.588Z,70.70
2023-02-16T06:04:50.364Z,70.92
2023-02-16T06:07:37.122Z,71.14
2023-02-16T06:10:23.920Z,70.62
2023-02-16T06:13:10.698Z,70.89
2023-02-16T06:15:57.564Z,70.97
2023-02-16T06:18:45.060Z,70.96
2023-02-16T06:21:32.642Z,70.32
2023-02-16T06:24:19.456Z,71.09
2023-02-16T06:27:06.365Z,70.51
2023-02-16T06:29:53.141Z,71.27
2023-02-16T06:32:39.912Z,71.05
2023-02-16T06:35:26.770Z,71.34
2023-02-16T06:38:13.544Z,70.73
2023-02-16T06:41:00.324Z,70.65
2023-02-16T06:43:49.915Z,71.30
2023-02-16T06:46:36.846Z,70.39
2023-02-16T06:49:26.053Z,70.68
2023-02-16T06:52:14.525Z,70.62
2023-02-16T06:55:01.301Z,71.12
2023-02-16T06:57:50.389Z,71.11
2023-02-16T07:00:37.330Z,70.75
2023-02-16T07:03:24.862Z,71.31
2023-02-16T07:06:11.795Z,70.89
2023-02-16T07:08:59.398Z,71.02
2023-02-16T07:11:48.452Z,70.92
2023-02-16T07:14:38.343Z,70.78
2023-02-16T07:17:25.127Z,70.76
2023-02-16T07:20:12.883Z,71.27
2023-02-16T07:22:59.685Z,70.75
2023-02-16T07:25:46.818Z,71.10
2023-02-16T07:28:33.585Z,71.17
2023-02-16T07:31:20.516Z,70.65
2023-02-16T07:34:07.347Z,70.58
2023-02-16T07:36:54.194Z,70.98
2023-02-16T07:39:40.971Z,70.99
2023-02-16T07:42:32.136Z,70.75
2023-02-16T07:45:18.965Z,70.76
2023-02-16T07:48:05.844Z,70.89
2023-02-16T07:50:52.720Z,71.50
2023-02-16T07:53:39.507Z,71.34
2023-02-16T07:56:28.752Z,71.35
2023-02-16T07:59:15.760Z,71.46
2023-02-16T08:02:05.896Z,70.97
2023-02-16T08:04:53.373Z,71.08
2023-02-16T08:07:41.111Z,71.21
2023-02-16T08:10:27.889Z,71.12
2023-02-16T08:13:15.074Z,70.78
2023-02-16T08:16:04.625Z,71.35
2023-02-16T08:18:52.408Z,70.88
2023-02-16T08:21:39.711Z,71.35
2023-02-16T08:24:29.614Z,70.91
2023-02-16T08:27:16.710Z,71.35
2023-02-16T08:30:12.580Z,71.57
2023-02-16T08:33:01.344Z,71.26
2023-02-16T08:35:48.374Z,71.18
2023-02-16T08:38:35.882Z,70.77
2023-02-16T08:41:24.380Z,71.83
2023-02-16T08:44:11.795Z,71.22
2023-02-16T08:47:00.749Z,71.20
2023-02-16T08:49:47.893Z,71.36
2023-02-16T08:52:41.491Z,71.19
2023-02-16T08:55:28.292Z,71.40
2023-02-16T08:58:15.731Z,71.18
2023-02-16T09:01:21.418Z,71.37
2023-02-16T09:04:14.356Z,71.64
2023-02-16T09:10:06.084Z,70.75
2023-02-16T09:12:53.030Z,71.17
2023-02-16T09:15:40.483Z,71.21
2023-02-16T09:18:29.632Z,71.57
2023-02-16T09:21:30.162Z,71.54
2023-02-16T09:24:20.069Z,71.40
2023-02-16T09:27:06.975Z,71.56
2023-02-16T09:29:53.775Z,71.47
2023-02-16T09:35:27.546Z,71.60
2023-02-16T09:38:16.781Z,71.15
2023-02-16T09:41:07.906Z,71.13
2023-02-16T09:44:09.909Z,71.38
2023-02-16T09:46:58.937Z,71.79
2023-02-16T09:49:46.019Z,71.74
2023-02-16T09:52:36.613Z,71.87
2023-02-16T09:55:31.240Z,71.67
2023-02-16T09:58:24.085Z,71.94
2023-02-16T10:01:33.764Z,71.82
2023-02-16T10:04:34.903Z,71.44
2023-02-16T10:07:40.227Z,71.57
2023-02-16T10:10:40.077Z,71.69
2023-02-16T10:13:36.816Z,72.04
2023-02-16T10:16:35.508Z,72.07
2023-02-16T10:19:38.544Z,71.83
2023-02-16T10:22:36.859Z,71.97
2023-02-16T10:25:42.446Z,72.36
2023-02-16T10:28:40.832Z,71.77
2023-02-16T10:31:58.169Z,72.19
2023-02-16T10:34:54.402Z,72.29
2023-02-16T10:37:53.218Z,71.73
2023-02-16T10:41:04.170Z,71.74
2023-02-16T10:43:59.888Z,71.73
2023-02-16T10:46:54.472Z,71.94
2023-02-16T10:49:41.301Z,72.10
2023-02-16T10:52:32.586Z,71.71
2023-02-16T10:55:19.643Z,71.75
2023-02-16T10:58:18.601Z,71.96
2023-02-16T11:01:32.247Z,71.79
2023-02-16T11:04:52.356Z,71.91
2023-02-16T11:08:01.713Z,72.41
2023-02-16T11:10:54.996Z,72.12
2023-02-16T11:13:41.821Z,71.91
2023-02-16T11:16:29.695Z,72.36
2023-02-16T11:19:22.564Z,72.39
2023-02-16T11:22:34.584Z,72.07
2023-02-16T11:25:43.550Z,72.21
2023-02-16T11:28:39.134Z,72.33
2023-02-16T11:31:33.151Z,72.13
2023-02-16T11:34:47.281Z,72.02
2023-02-16T11:37:34.220Z,72.10
2023-02-16T11:40:37.989Z,71.92
2023-02-16T11:43:31.121Z,72.25
2023-02-16T11:46:21.015Z,71.87
2023-02-16T11:49:32.477Z,71.84
2023-02-16T11:52:30.544Z,71.91
2023-02-16T11:55:34.350Z,71.86
2023-02-16T11:58:26.464Z,72.03
2023-02-16T12:01:26.222Z,72.33
2023-02-16T12:04:31.221Z,71.35
2023-02-16T12:07:57.141Z,71.85
2023-02-16T12:11:44.393Z,71.77
2023-02-16T12:14:40.962Z,71.83
2023-02-16T12:17:31.782Z,72.01
2023-02-16T12:20:41.206Z,72.26
2023-02-16T12:23:43.877Z,71.98
2023-02-16T12:26:56.940Z,71.86
2023-02-16T12:30:12.821Z,71.88
2023-02-16T12:33:08.917Z,71.76
2023-02-16T12:37:07.128Z,72.46
2023-02-16T12:40:27.246Z,72.43
2023-02-16T12:46:18.966Z,72.10
2023-02-16T12:49:06.583Z,72.22
2023-02-16T12:52:31.917Z,71.86
2023-02-16T12:55:27.130Z,72.09
2023-02-16T12:58:20.941Z,72.42
2023-02-16T13:01:19.045Z,71.72
2023-02-16T13:04:26.999Z,72.01
2023-02-16T13:07:20.065Z,72.23
2023-02-16T13:11:02.898Z,71.78
2023-02-16T13:13:57.112Z,72.12
2023-02-16T13:17:00.959Z,72.24
2023-02-16T13:19:51.987Z,72.14
2023-02-16T13:26:37.654Z,71.52
2023-02-16T13:30:08.822Z,71.99
2023-02-16T13:33:21.564Z,71.86
2023-02-16T13:36:19.259Z,71.51
2023-02-16T13:39:21.193Z,71.60
2023-02-16T13:42:35.960Z,71.95
2023-02-16T13:45:32.974Z,71.89
2023-02-16T13:48:50.866Z,71.50
2023-02-16T13:51:49.329Z,72.23
2023-02-16T13:54:46.523Z,72.16
2023-02-16T13:57:53.108Z,71.89
2023-02-16T14:00:47.620Z,72.17
2023-02-16T14:03:38.045Z,71.97
2023-02-16T14:06:29.422Z,71.71
2023-02-16T14:09:23.538Z,71.97
2023-02-16T14:12:21.768Z,71.92
2023-02-16T14:15:26.387Z,71.96
2023-02-16T14:18:46.522Z,72.19
2023-02-16T14:21:42.924Z,71.52
2023-02-16T14:24:37.782Z,72.21
2023-02-16T14:28:05.425Z,72.23
2023-02-16T14:30:57.696Z,71.59
2023-02-16T14:33:53.107Z,71.93
2023-02-16T14:37:17.159Z,72.27
2023-02-16T14:40:22.805Z,71.96
2023-02-16T14:43:41.901Z,72.04
2023-02-16T14:46:53.858Z,71.72
2023-02-16T14:50:18.521Z,72.11
2023-02-16T14:53:50.073Z,71.59
2023-02-16T14:56:58.945Z,72.33
2023-02-16T14:59:48.532Z,71.62
2023-02-16T15:02:44.353Z,72.29
2023-02-16T15:05:36.821Z,72.20
2023-02-16T15:08:37.117Z,72.18
2023-02-16T15:11:27.849Z,71.88
2023-02-16T15:14:15.956Z,71.79
2023-02-16T15:17:14.722Z,71.87
2023-02-16T15:20:18.032Z,72.17
2023-02-16T15:23:15.979Z,71.92
2023-02-16T15:26:15.023Z,71.57
2023-02-16T15:29:26.892Z,72.44
2023-02-16T15:36:13.156Z,73.68
2023-02-16T15:39:19.892Z,73.22
2023-02-16T15:43:06.053Z,73.77
2023-02-16T15:46:09.370Z,73.46
2023-02-16T15:57:20.936Z,73.62
2023-02-16T16:00:46.355Z,73.40
2023-02-16T16:11:57.854Z,73.54
2023-02-16T16:22:04.071Z,73.12
2023-02-16T16:31:53.246Z,73.04
2023-02-16T16:34:40.656Z,72.87
2023-02-16T16:37:30.036Z,72.98
2023-02-16T16:40:21.349Z,72.95
2023-02-16T16:43:17.424Z,72.83
2023-02-16T16:46:18.668Z,73.14
2023-02-16T16:49:12.598Z,72.94
2023-02-16T16:51:59.382Z,72.51
2023-02-16T16:54:48.929Z,72.71
2023-02-16T16:57:35.823Z,72.67
2023-02-16T17:00:24.916Z,72.59
2023-02-16T17:03:14.885Z,72.46
2023-02-16T17:06:01.688Z,72.59
2023-02-16T17:08:48.725Z,72.53
2023-02-16T17:11:37.447Z,72.48
2023-02-16T17:14:27.037Z,72.54
2023-02-16T17:17:14.618Z,72.74
2023-02-16T17:20:01.360Z,72.48
2023-02-16T17:22:48.159Z,72.49
2023-02-16T17:25:35.073Z,72.55
2023-02-16T17:28:21.996Z,72.39
2023-02-16T17:31:10.241Z,72.46
2023-02-16T17:33:57.005Z,72.60
2023-02-16T17:36:46.279Z,72.32
2023-02-16T17:39:33.091Z,72.50
2023-02-16T17:42:19.847Z,72.49
2023-02-16T17:45:06.812Z,72.35
2023-02-16T17:47:53.612Z,72.28
2023-02-16T17:50:40.345Z,72.67
2023-02-16T17:53:27.759Z,72.17
2023-02-16T17:56:16.599Z,72.52
2023-02-16T17:59:03.533Z,72.36
2023-02-16T18:01:50.275Z,72.55
2023-02-16T18:04:40.878Z,72.54
2023-02-16T18:07:27.746Z,72.47
2023-02-16T18:10:21.083Z,72.35
2023-02-16T18:13:09.526Z,72.20
2023-02-16T18:15:57.763Z,72.62
2023-02-16T18:18:45.225Z,72.22
2023-02-16T18:21:32.077Z,72.40
2023-02-16T18:24:19.014Z,72.29
2023-02-16T18:27:06.186Z,72.50
2023-02-16T18:29:53.159Z,72.47
2023-02-16T18:32:41.778Z,72.51
2023-02-16T18:35:28.615Z,72.55
2023-02-16T18:38:15.391Z,72.44
2023-02-16T18:41:04.791Z,72.35
2023-02-16T18:44:01.465Z,71.98
2023-02-16T18:46:51.061Z,72.35
2023-02-16T18:49:37.856Z,72.30
2023-02-16T18:52:24.848Z,72.58
2023-02-16T18:55:12.742Z,72.43
2023-02-16T18:58:00.394Z,72.35
2023-02-16T19:00:49.823Z,72.46
2023-02-16T19:03:39.204Z,72.33
2023-02-16T19:06:26.520Z,72.40
2023-02-16T19:09:13.278Z,72.16
2023-02-16T19:12:01.271Z,72.33
2023-02-16T19:14:52.285Z,72.35
2023-02-16T19:17:44.806Z,72.22
2023-02-16T19:20:31.689Z,72.25
2023-02-16T19:23:18.893Z,72.22
2023-02-16T19:26:07.502Z,72.04
2023-02-16T19:28:56.742Z,71.88
2023-02-16T19:31:47.769Z,71.96
2023-02-16T19:35:24.142Z,72.07
2023-02-16T19:37:44.815Z,72.28
2023-02-16T19:40:31.672Z,72.27
2023-02-16T19:43:18.547Z,72.19
2023-02-16T19:46:05.876Z,72.32
2023-02-16T19:49:00.270Z,71.99
2023-02-16T19:51:47.681Z,71.90
2023-02-16T19:54:35.842Z,71.73
2023-02-16T19:57:22.761Z,72.13
2023-02-16T20:00:13.308Z,71.85
2023-02-16T20:03:00.184Z,72.22
2023-02-16T20:05:47.128Z,72.08
2023-02-16T20:08:33.945Z,71.98
2023-02-16T20:11:23.445Z,71.98
2023-02-16T20:14:10.830Z,71.97
2023-02-16T20:16:57.804Z,72.21
2023-02-16T20:19:44.580Z,71.81
2023-02-16T20:22:31.339Z,72.34
2023-02-16T20:25:18.178Z,72.51
2023-02-16T20:28:05.058Z,72.07
2023-02-16T20:30:52.920Z,72.10
2023-02-16T20:33:39.840Z,72.37
2023-02-16T20:36:26.833Z,71.93
2023-02-16T20:39:13.913Z,72.42
2023-02-16T20:42:00.988Z,72.19
2023-02-16T20:44:47.793Z,72.23
2023-02-16T20:47:34.608Z,72.37
2023-02-16T20:50:21.513Z,72.30
2023-02-16T20:53:08.303Z,71.68
2023-02-16T20:56:06.922Z,72.01
2023-02-16T20:58:55.729Z,72.01
2023-02-16T21:01:46.365Z,72.12
2023-02-16T21:04:33.266Z,72.14
2023-02-16T21:07:20.402Z,72.01
2023-02-16T21:10:08.756Z,72.03
2023-02-16T21:12:58.326Z,72.28
2023-02-16T21:15:45.116Z,72.30
2023-02-16T21:18:31.866Z,72.25
2023-02-16T21:21:18.651Z,72.01
2023-02-16T21:24:05.530Z,71.79
2023-02-16T21:26:52.303Z,72.29
2023-02-16T21:29:40.250Z,72.26
2023-02-16T21:32:27.101Z,71.77
2023-02-16T21:35:13.888Z,72.01
2023-02-16T21:38:00.803Z,72.07
2023-02-16T21:41:06.267Z,72.14
2023-02-16T21:44:05.079Z,71.82
2023-02-16T21:46:52.028Z,72.01
2023-02-16T21:49:39.908Z,71.82
2023-02-16T21:52:26.875Z,71.97
2023-02-16T21:55:32.306Z,72.16
2023-02-16T21:58:19.215Z,71.81
2023-02-16T22:01:06.094Z,72.20
2023-02-16T22:03:58.428Z,71.79
2023-02-16T22:06:47.285Z,72.00
2023-02-16T22:09:34.078Z,72.41
2023-02-16T22:12:20.879Z,71.94
2023-02-16T22:15:07.683Z,71.91
2023-02-16T22:17:54.529Z,72.05
2023-02-16T22:20:41.301Z,71.99
2023-02-16T22:23:28.096Z,72.22
2023-02-16T22:26:41.103Z,72.26
2023-02-16T22:29:27.884Z,71.74
2023-02-16T22:32:14.873Z,72.22
2023-02-16T22:35:01.757Z,72.12
2023-02-16T22:37:48.522Z,71.96
2023-02-16T22:40:35.315Z,72.25
2023-02-16T22:43:22.076Z,72.17
2023-02-16T22:46:13.444Z,71.97
2023-02-16T22:49:00.299Z,72.24
2023-02-16T22:51:47.156Z,72.34
2023-02-16T22:54:34.019Z,72.61
2023-02-16T22:57:20.944Z,72.05
2023-02-16T23:00:11.473Z,72.11
2023-02-16T23:02:58.261Z,72.33
2023-02-16T23:05:45.335Z,72.12
2023-02-16T23:08:32.130Z,71.89
2023-02-16T23:11:18.931Z,71.85
2023-02-16T23:14:06.141Z,72.38
2023-02-16T23:16:54.712Z,71.90
2023-02-16T23:19:41.607Z,72.50
2023-02-16T23:22:29.945Z,72.46
2023-02-16T23:25:34.968Z,72.08
2023-02-16T23:32:11.414Z,71.97
2023-02-16T23:34:59.782Z,71.96
2023-02-16T23:37:46.693Z,72.14
2023-02-16T23:40:33.893Z,72.13
2023-02-16T23:43:20.667Z,72.47
2023-02-16T23:46:08.046Z,72.18
2023-02-16T23:48:55.162Z,72.72
2023-02-16T23:51:42.048Z,72.26
2023-02-16T23:54:28.814Z,72.15
2023-02-16T23:57:15.643Z,72.47
